CU-0037 weather

Guaicanamar Airport
Camag├╝ey, Cuba

Public forecast

Using degrees Celsius for public forecast. Weather courtesy of forecast.io.

Closest aviation weather report (METAR) to Guaicanamar Airport

Closest report is Ignacio Agramonte International Airport, 31.5 nm (58.4 km) N. Retrieved 2019/10/20 03:50 UTC (1 hour ago):

MUCM 200350Z 08004KT 9000 NSC 25/24 Q1015

Closest aviation forecast (TAF) to Guaicanamar Airport

Closest forecast is Ignacio Agramonte International Airport, 31.5 nm (58.4 km) N. Retrieved 2019-10-20 00:03 UTC (5 hours ago):

TAF TAF MUCM 192300Z 2000/2024 VRB03KT 9000 SCT020